Terminal Aerodrome Forecast
Issued by NWS Sterling, VA

Home | Current Version | Previous Version | Text Only | Print | Product List | Glossary On
Versions: 1 2 3 4 5 6 7 8 9 10 11 12 13 14 15 16 17 18 19 20
458
FTUS41 KLWX 252103 AAA
TAFBWI
TAF AMD
KBWI 252103Z 2521/2624 VRB04KT P6SM BKN050 OVC150
     FM252300 09004KT P6SM OVC050
     FM260200 10005KT 4SM BR OVC025
     FM260300 10006KT 3SM BR OVC015
     FM260400 10007KT 3SM BR OVC008
     FM261500 10009KT 3SM BR OVC003
     FM261800 11009KT 4SM BR BKN015=

USA.gov is the U.S. government's official web portal to all federal, state and local government web resources and services.